Time;durP1;ratioP1;P1;durP2;ratioP2;P2;SDS_P1;SDS_P2;PMS_P1;PMS_P2;Temp;Humidity;BMP_temperature;BMP_pressure;BME280_temperature;BME280_humidity;BME280_pressure;Samples;Min_cycle;Max_cycle;Signal;HPM_P1;HPM_P2
2022/03/20 00:00:22;;;;;;;16.95;6.93;;;;;;;5.67;51.76;101911.72;4998901;28;20042;-79
2022/03/20 00:02:48;;;;;;;14.48;6.00;;;;;;;5.66;52.13;101906.50;5015232;28;20037;-78
2022/03/20 00:05:14;;;;;;;12.40;6.55;;;;;;;5.62;52.14;101902.41;5001275;28;20026;-78
2022/03/20 00:07:40;;;;;;;;;;;;;;;5.66;52.59;101893.13;5011964;28;20496;-79
2022/03/20 00:10:07;;;;;;;16.90;6.18;;;;;;;5.54;52.93;101887.91;5017073;28;19920;-77
2022/03/20 00:12:32;;;;;;;11.85;5.63;;;;;;;5.52;53.32;101886.34;5020995;28;20030;-82
2022/03/20 00:14:58;;;;;;;13.57;5.80;;;;;;;5.50;53.33;101880.28;5020050;28;20037;-82
2022/03/20 00:17:23;;;;;;;17.65;6.68;;;;;;;5.45;53.64;101882.53;5036022;28;20034;-78
2022/03/20 00:19:49;;;;;;;15.43;6.80;;;;;;;5.43;53.97;101877.31;5021227;28;20069;-78
2022/03/20 00:22:15;;;;;;;14.63;5.82;;;;;;;5.40;53.85;101871.38;5022988;28;20033;-78
2022/03/20 00:24:41;;;;;;;;;;;;;;;5.36;54.32;101867.31;5018451;28;20042;-77
2022/03/20 00:27:12;;;;;;;16.20;6.35;;;;;;;5.32;54.35;101865.88;5022565;28;19979;-77
2022/03/20 00:29:38;;;;;;;17.38;6.70;;;;;;;5.32;54.05;101865.88;5017589;28;20033;-77
2022/03/20 00:32:09;;;;;;;14.65;6.47;;;;;;;5.36;54.04;101853.94;5017047;28;20029;-77
2022/03/20 00:34:35;;;;;;;21.52;7.25;;;;;;;5.29;54.35;101858.97;5016267;28;20124;-78
2022/03/20 00:37:00;;;;;;;14.48;6.82;;;;;;;5.16;54.18;101845.03;5017786;28;20021;-77
2022/03/20 00:39:26;;;;;;;14.23;7.07;;;;;;;5.22;54.64;101850.66;5016455;28;20033;-76
2022/03/20 00:41:51;;;;;;;17.73;6.38;;;;;;;5.10;54.45;101845.53;5016651;28;20034;-79
2022/03/20 00:44:17;;;;;;;15.43;6.22;;;;;;;5.12;54.74;101841.75;5015443;28;20033;-77
2022/03/20 00:46:42;;;;;;;17.57;6.87;;;;;;;5.08;54.38;101837.66;5015922;28;20034;-78
2022/03/20 00:49:07;;;;;;;15.90;6.33;;;;;;;5.10;54.46;101833.03;5015875;28;20045;-77
2022/03/20 00:51:33;;;;;;;17.60;6.13;;;;;;;5.10;54.64;101829.50;5014495;28;20331;-78
2022/03/20 00:53:59;;;;;;;12.98;5.95;;;;;;;5.04;54.65;101814.88;5015609;28;20041;-76
2022/03/20 00:56:25;;;;;;;12.80;6.15;;;;;;;5.01;54.75;101825.84;5015085;28;20358;-76
2022/03/20 00:58:50;;;;;;;14.30;6.70;;;;;;;4.98;54.59;101826.09;5016404;28;20064;-79
2022/03/20 01:01:16;;;;;;;14.27;6.03;;;;;;;4.91;54.47;101810.75;5016026;28;20073;-78
2022/03/20 01:03:42;;;;;;;14.43;6.32;;;;;;;4.87;53.95;101813.66;5015339;28;20252;-77
2022/03/20 01:06:08;;;;;;;16.30;7.43;;;;;;;4.94;53.62;101821.16;5015815;28;20546;-77
2022/03/20 01:08:34;;;;;;;12.73;7.22;;;;;;;4.90;53.81;101807.22;5035022;28;20039;-78
2022/03/20 01:11:01;;;;;;;17.10;7.28;;;;;;;4.86;53.91;101806.63;5035967;28;20041;-77
2022/03/20 01:13:27;;;;;;;14.18;6.53;;;;;;;4.81;53.71;101800.88;5034331;28;20043;-76
2022/03/20 01:15:53;;;;;;;17.33;7.07;;;;;;;4.77;53.66;101798.59;5036039;28;20033;-77
2022/03/20 01:18:19;;;;;;;15.30;6.82;;;;;;;4.69;53.64;101790.41;5035829;28;20033;-80
2022/03/20 01:20:45;;;;;;;14.63;6.82;;;;;;;4.74;54.28;101793.53;5036327;28;20033;-78
2022/03/20 01:23:10;;;;;;;15.52;7.03;;;;;;;4.80;53.58;101801.00;5034249;28;20382;-77
2022/03/20 01:25:36;;;;;;;18.92;7.57;;;;;;;4.72;53.20;101790.13;5034895;28;20036;-76
2022/03/20 01:28:02;;;;;;;15.35;6.55;;;;;;;4.71;53.49;101780.44;5034358;28;20030;-78
2022/03/20 01:30:27;;;;;;;16.98;7.07;;;;;;;4.65;53.66;101781.00;5035269;28;20115;-78
2022/03/20 01:32:52;;;;;;;16.02;6.97;;;;;;;4.62;53.44;101786.59;5034687;28;20032;-78
2022/03/20 01:35:18;;;;;;;18.50;7.47;;;;;;;4.59;53.21;101784.19;5033707;28;20033;-77
2022/03/20 01:37:43;;;;;;;15.20;7.83;;;;;;;4.64;52.79;101768.63;5034748;28;20357;-76
2022/03/20 01:40:09;;;;;;;19.67;6.87;;;;;;;4.55;52.76;101764.91;5035722;28;20410;-77
2022/03/20 01:42:38;;;;;;;;;;;;;;;4.57;52.93;101765.63;5035624;28;20055;-77
2022/03/20 01:45:21;;;;;;;15.65;6.68;;;;;;;4.54;52.88;101757.88;5034646;28;19909;-76
2022/03/20 01:47:49;;;;;;;13.20;6.53;;;;;;;4.49;53.06;101747.59;5034471;28;20021;-76
2022/03/20 01:50:18;;;;;;;15.82;6.43;;;;;;;4.53;52.62;101750.84;5033721;28;20060;-77
2022/03/20 01:52:48;;;;;;;16.52;6.85;;;;;;;4.54;52.64;101740.03;5035212;28;20029;-76
2022/03/20 01:55:16;;;;;;;17.00;6.50;;;;;;;4.53;52.54;101740.16;5033872;28;20029;-77
2022/03/20 01:57:44;;;;;;;13.45;6.65;;;;;;;4.58;52.13;101731.78;5033064;28;20487;-78
2022/03/20 02:00:11;;;;;;;18.38;7.60;;;;;;;4.47;52.68;101732.72;5033933;28;20056;-76
2022/03/20 02:02:37;;;;;;;17.52;7.18;;;;;;;4.48;53.14;101727.22;5033893;28;20033;-78
2022/03/20 02:05:04;;;;;;;17.23;6.20;;;;;;;4.38;53.22;101722.81;5033492;28;20368;-77
2022/03/20 02:07:34;;;;;;;19.38;7.20;;;;;;;4.38;52.69;101721.00;5035193;28;20049;-78
2022/03/20 02:10:01;;;;;;;16.83;6.70;;;;;;;4.40;52.43;101713.72;5034736;28;20088;-76
2022/03/20 02:12:26;;;;;;;13.48;6.13;;;;;;;4.30;52.91;101718.13;5034367;28;20021;-77
2022/03/20 02:14:51;;;;;;;18.67;6.80;;;;;;;4.37;52.88;101718.47;5033862;28;20033;-78
2022/03/20 02:17:17;;;;;;;13.27;6.53;;;;;;;4.37;52.97;101699.78;5032932;28;20097;-79
2022/03/20 02:19:44;;;;;;;17.37;6.77;;;;;;;4.34;52.71;101695.56;5034583;28;20026;-78
2022/03/20 02:22:09;;;;;;;12.93;6.30;;;;;;;4.35;52.79;101683.91;5034988;28;20065;-78
2022/03/20 02:24:41;;;;;;;15.20;6.30;;;;;;;4.33;52.04;101688.53;5035950;28;20078;-78
2022/03/20 02:27:17;;;;;;;12.93;6.32;;;;;;;4.31;52.54;101697.63;5034292;28;20021;-79
2022/03/20 02:30:06;;;;;;;14.27;6.35;;;;;;;4.28;52.48;101685.44;5035183;28;20131;-78
2022/03/20 02:32:32;;;;;;;14.32;6.20;;;;;;;4.30;52.41;101683.44;5035280;28;20105;-77
2022/03/20 02:35:01;;;;;;;11.82;6.05;;;;;;;4.29;52.54;101667.59;5034612;28;20026;-77
2022/03/20 02:37:28;;;;;;;15.65;6.63;;;;;;;4.27;52.44;101664.22;5036377;28;20032;-77
2022/03/20 02:39:58;;;;;;;15.63;6.00;;;;;;;4.32;51.90;101664.66;5035377;28;20025;-78
2022/03/20 02:42:24;;;;;;;17.83;6.90;;;;;;;4.37;51.59;101676.63;5036764;28;20068;-78
2022/03/20 02:45:00;;;;;;;;;;;;;;;4.33;51.86;101659.19;5038315;28;20038;-79
2022/03/20 02:47:27;;;;;;;17.98;6.50;;;;;;;4.34;51.55;101663.53;5038212;28;20000;-77
2022/03/20 02:50:03;;;;;;;16.92;7.30;;;;;;;4.35;51.21;101656.38;5038156;28;20026;-76
2022/03/20 02:52:30;;;;;;;17.08;7.10;;;;;;;4.29;51.23;101656.94;5037192;28;20113;-78
2022/03/20 02:55:00;;;;;;;15.82;6.32;;;;;;;4.30;51.50;101651.44;5036016;28;20044;-77
2022/03/20 02:57:27;;;;;;;41.47;7.30;;;;;;;4.39;50.79;101653.31;5036464;28;20033;-77
2022/03/20 02:59:53;;;;;;;14.75;7.03;;;;;;;4.34;50.79;101652.03;5036967;28;20029;-77
2022/03/20 03:02:18;;;;;;;16.50;6.37;;;;;;;4.31;51.13;101649.63;5037326;28;20041;-77
2022/03/20 03:04:43;;;;;;;14.27;6.43;;;;;;;4.27;50.96;101653.56;5036413;28;20033;-76
2022/03/20 03:07:10;;;;;;;14.60;6.07;;;;;;;4.15;51.41;101642.94;5032795;28;20095;-76
2022/03/20 03:12:19;;;;;;;17.98;6.72;;;;;;;4.11;51.37;101646.03;5037151;28;20396;-77
2022/03/20 03:17:28;;;;;;;18.83;6.45;;;;;;;4.16;51.19;101635.78;5038570;28;20283;-77
2022/03/20 03:19:57;;;;;;;16.85;6.28;;;;;;;4.09;51.75;101624.00;5039629;28;20030;-78
2022/03/20 03:22:26;;;;;;;18.42;7.32;;;;;;;4.06;51.45;101622.44;5043025;28;20033;-77
2022/03/20 03:24:54;;;;;;;12.63;5.22;;;;;;;4.16;51.32;101625.13;5041355;28;20431;-79
2022/03/20 03:27:20;;;;;;;13.98;7.03;;;;;;;4.11;51.40;101617.56;5046695;28;20033;-78
2022/03/20 03:29:45;;;;;;;15.80;5.97;;;;;;;4.08;51.34;101611.63;5039975;28;20426;-78
2022/03/20 03:32:11;;;;;;;20.20;6.17;;;;;;;4.12;51.31;101618.41;5038252;28;20037;-78
2022/03/20 03:37:20;;;;;;;17.40;6.00;;;;;;;4.01;51.15;101613.13;5038388;28;20126;-78
2022/03/20 03:39:49;;;;;;;15.37;7.03;;;;;;;4.05;51.13;101596.75;5037266;28;20061;-77
2022/03/20 03:42:15;;;;;;;13.45;5.97;;;;;;;4.09;51.04;101587.50;5037892;28;20257;-76
2022/03/20 03:44:41;;;;;;;17.17;7.38;;;;;;;3.99;51.17;101591.94;5037872;28;20388;-78
2022/03/20 03:47:06;;;;;;;14.80;6.35;;;;;;;4.00;51.02;101590.09;5036875;28;20446;-77
2022/03/20 03:49:33;;;;;;;15.73;6.57;;;;;;;3.99;50.63;101583.09;5037381;28;20025;-77
2022/03/20 03:52:00;;;;;;;15.18;6.60;;;;;;;3.99;51.38;101586.59;5038407;28;20041;-78
2022/03/20 03:54:25;;;;;;;16.63;6.97;;;;;;;3.98;50.92;101589.41;5037420;28;20140;-76
2022/03/20 03:56:51;;;;;;;14.48;6.20;;;;;;;4.02;50.92;101564.16;5036658;28;20037;-78
2022/03/20 03:59:17;;;;;;;13.33;6.80;;;;;;;3.92;51.00;101571.28;5038059;28;20439;-76
2022/03/20 04:01:43;;;;;;;13.68;6.35;;;;;;;3.90;50.66;101567.91;5037723;28;20025;-77
2022/03/20 04:04:08;;;;;;;17.23;7.07;;;;;;;3.98;50.52;101571.56;5036881;28;20086;-77
2022/03/20 04:06:34;;;;;;;16.63;6.87;;;;;;;3.97;50.00;101569.88;5036019;28;20500;-76
2022/03/20 04:09:00;;;;;;;18.00;7.32;;;;;;;3.84;50.44;101566.59;5034896;28;20375;-77
2022/03/20 04:11:25;;;;;;;17.85;6.90;;;;;;;3.87;50.52;101568.16;5035666;28;20034;-78
2022/03/20 04:13:50;;;;;;;14.43;6.67;;;;;;;3.87;50.36;101558.34;5036113;28;20025;-78
2022/03/20 04:16:16;;;;;;;14.77;8.00;;;;;;;3.80;50.68;101565.19;5035876;28;20025;-76
2022/03/20 04:18:41;;;;;;;15.82;6.30;;;;;;;3.84;50.11;101550.59;5034132;28;20033;-78
2022/03/20 04:21:06;;;;;;;17.03;5.93;;;;;;;3.86;50.00;101547.81;5034843;28;20380;-77
2022/03/20 04:23:49;;;;;;;17.77;6.70;;;;;;;3.79;50.01;101545.66;5036454;28;20025;-78
2022/03/20 04:26:19;;;;;;;19.35;6.85;;;;;;;3.83;49.69;101543.59;5036646;28;20309;-76
2022/03/20 04:28:46;;;;;;;18.52;6.65;;;;;;;3.88;49.09;101545.84;5037395;28;20030;-77
2022/03/20 04:31:15;;;;;;;14.70;6.28;;;;;;;3.93;49.02;101549.81;5036380;28;20073;-78
2022/03/20 04:33:48;;;;;;;13.68;6.28;;;;;;;3.97;49.02;101545.03;5037221;28;20033;-75
2022/03/20 04:36:15;;;;;;;17.08;6.15;;;;;;;3.88;49.49;101533.38;5037617;28;20041;-77
2022/03/20 04:38:40;;;;;;;13.77;6.50;;;;;;;3.92;49.46;101531.28;5037502;28;20029;-79
2022/03/20 04:41:06;;;;;;;14.50;5.53;;;;;;;3.94;48.91;101532.81;5036850;28;20048;-78
2022/03/20 04:43:32;;;;;;;16.80;6.00;;;;;;;3.86;49.17;101526.47;5034560;28;20083;-77
2022/03/20 04:45:58;;;;;;;13.85;6.50;;;;;;;3.84;49.38;101519.47;5036558;28;20021;-76
2022/03/20 04:59:26;;;;;;;15.45;5.68;;;;;;;3.71;49.25;101529.50;5034346;28;20112;-77
2022/03/20 05:01:51;;;;;;;18.60;5.57;;;;;;;3.69;49.21;101531.47;5034928;28;20057;-77
2022/03/20 05:04:17;;;;;;;14.27;6.43;;;;;;;3.66;49.33;101529.06;5035826;28;20099;-78
2022/03/20 05:06:43;;;;;;;13.05;5.28;;;;;;;3.73;49.13;101522.22;5034141;28;20051;-77
2022/03/20 05:14:37;;;;;;;16.00;6.65;;;;;;;3.53;49.26;101509.78;5036248;28;20506;-78
2022/03/20 05:17:05;;;;;;;15.30;6.23;;;;;;;3.49;49.43;101509.22;5035214;28;20037;-76
2022/03/20 05:19:33;;;;;;;16.13;6.00;;;;;;;3.47;49.70;101511.16;5034430;28;20072;-77
2022/03/20 05:21:58;;;;;;;17.55;6.82;;;;;;;3.45;49.22;101506.94;5034763;28;20032;-77
2022/03/20 05:24:23;;;;;;;17.10;6.63;;;;;;;3.42;49.34;101505.38;5034483;28;20395;-77
2022/03/20 05:26:49;;;;;;;12.13;5.60;;;;;;;3.48;49.42;101506.66;5033827;28;20556;-77
2022/03/20 05:29:15;;;;;;;13.13;5.95;;;;;;;3.44;49.76;101502.56;5034903;28;20483;-76
2022/03/20 05:31:40;;;;;;;15.83;6.90;;;;;;;3.35;49.23;101492.72;5032618;28;20049;-78
2022/03/20 05:34:06;;;;;;;12.57;6.18;;;;;;;3.34;49.46;101489.22;5035004;28;20288;-77
2022/03/20 05:36:31;;;;;;;16.42;6.28;;;;;;;3.32;49.77;101487.66;5033841;28;20102;-77
2022/03/20 05:38:56;;;;;;;13.33;5.77;;;;;;;3.40;49.79;101493.19;5034882;28;20108;-77
2022/03/20 05:44:06;;;;;;;13.90;5.28;;;;;;;3.27;49.81;101482.72;5034453;28;20044;-76
2022/03/20 05:46:31;;;;;;;15.33;6.03;;;;;;;3.20;49.81;101486.91;5032906;28;20025;-77
2022/03/20 05:48:57;;;;;;;19.88;7.55;;;;;;;3.23;49.70;101491.94;5034677;28;20753;-76
2022/03/20 05:51:22;;;;;;;14.48;6.72;;;;;;;3.18;49.28;101485.34;5033999;28;20124;-76
2022/03/20 05:53:48;;;;;;;13.73;6.93;;;;;;;3.18;49.97;101477.34;5034038;28;20033;-77
2022/03/20 05:58:58;;;;;;;14.68;6.47;;;;;;;3.16;49.09;101463.31;5033781;28;20517;-77
2022/03/20 06:01:23;;;;;;;17.83;6.25;;;;;;;3.15;49.44;101462.47;5033765;28;20482;-77
2022/03/20 06:03:49;;;;;;;18.48;6.63;;;;;;;3.11;49.40;101469.88;5032628;28;20029;-76
2022/03/20 06:06:15;;;;;;;13.98;5.78;;;;;;;3.20;49.06;101454.09;5032713;28;20448;-77
2022/03/20 06:08:40;;;;;;;14.90;6.82;;;;;;;3.21;49.10;101442.47;5033886;28;20041;-76
2022/03/20 06:11:06;;;;;;;13.15;6.07;;;;;;;3.17;49.41;101449.88;5034702;28;20384;-77
2022/03/20 06:13:33;;;;;;;16.75;6.35;;;;;;;3.17;49.19;101454.34;5032208;28;20029;-77
2022/03/20 06:15:58;;;;;;;14.13;5.72;;;;;;;3.23;48.65;101478.63;5033321;28;20056;-76
2022/03/20 06:18:26;;;;;;;16.25;7.10;;;;;;;3.33;48.69;101460.91;5034412;28;20516;-77
2022/03/20 06:20:52;;;;;;;17.08;6.50;;;;;;;3.29;48.12;101483.44;5034003;28;20030;-77
2022/03/20 06:23:17;;;;;;;;;;;;;;;3.24;48.43;101482.13;5034555;28;20034;-76
2022/03/20 06:25:43;;;;;;;18.63;6.53;;;;;;;3.23;48.31;101480.44;5035624;28;19909;-77
2022/03/20 06:28:09;;;;;;;16.75;6.22;;;;;;;3.32;48.21;101479.66;5035556;28;20040;-78
2022/03/20 06:30:35;;;;;;;17.75;6.32;;;;;;;3.27;48.35;101482.72;5034511;28;20037;-77
2022/03/20 06:33:03;;;;;;;18.60;5.88;;;;;;;3.34;48.11;101478.56;5036298;28;20079;-77
2022/03/20 06:35:29;;;;;;;13.65;7.03;;;;;;;3.34;47.84;101504.34;5035442;28;20065;-77
2022/03/20 06:37:55;;;;;;;14.88;5.82;;;;;;;3.30;48.15;101501.09;5034150;28;20446;-76
2022/03/20 06:40:21;;;;;;;10.77;5.57;;;;;;;3.37;48.04;101496.94;5033679;28;20461;-77
2022/03/20 06:42:47;;;;;;;19.13;6.30;;;;;;;3.43;47.55;101491.06;5038575;28;20026;-76
2022/03/20 06:45:14;;;;;;;11.75;5.97;;;;;;;3.50;47.98;101494.06;5022236;28;20025;-78
2022/03/20 06:47:41;;;;;;;;;;;;;;;3.44;47.89;101497.25;5037159;28;20044;-77
2022/03/20 06:50:08;;;;;;;14.05;6.18;;;;;;;3.54;47.69;101499.97;5037057;28;19944;-76
2022/03/20 06:52:33;;;;;;;16.35;5.20;;;;;;;3.55;47.42;101493.66;5037213;28;20435;-78
2022/03/20 06:55:02;;;;;;;16.63;6.50;;;;;;;3.55;47.87;101489.19;5037943;28;20041;-78
2022/03/20 06:57:28;;;;;;;16.95;5.75;;;;;;;3.65;47.79;101481.22;5039197;28;20535;-77
2022/03/20 06:59:55;;;;;;;;;;;;;;;3.68;47.29;101486.28;5037270;28;20053;-77
2022/03/20 07:02:20;;;;;;;16.33;5.95;;;;;;;3.64;47.29;101483.03;5036982;28;20027;-78
2022/03/20 07:04:48;;;;;;;13.90;6.07;;;;;;;3.58;47.65;101482.75;5037450;28;20053;-77
2022/03/20 07:07:15;;;;;;;15.52;5.90;;;;;;;3.72;47.44;101477.91;5036223;28;20300;-75
2022/03/20 07:09:40;;;;;;;14.65;6.85;;;;;;;3.73;46.95;101476.06;5039421;28;20040;-78
2022/03/20 07:12:06;;;;;;;16.37;6.00;;;;;;;3.64;46.99;101487.53;5038967;28;20030;-78
2022/03/20 07:14:34;;;;;;;12.30;5.63;;;;;;;3.61;47.26;101480.63;5039193;28;20451;-78
2022/03/20 07:17:03;;;;;;;14.43;5.68;;;;;;;3.73;47.24;101479.59;5039588;28;20045;-78
2022/03/20 07:19:28;;;;;;;14.43;6.72;;;;;;;3.83;46.94;101463.59;5039583;28;20037;-79
2022/03/20 07:21:54;;;;;;;13.43;6.03;;;;;;;3.82;46.53;101462.75;5037839;28;20036;-77
2022/03/20 07:24:19;;;;;;;14.98;6.22;;;;;;;3.77;47.26;101464.97;5038271;28;20052;-77
2022/03/20 07:29:31;;;;;;;13.90;6.05;;;;;;;3.90;46.72;101454.09;5037858;28;20499;-78
2022/03/20 07:32:06;;;;;;;17.13;6.75;;;;;;;3.89;46.81;101464.91;5037636;28;20127;-77
2022/03/20 07:34:35;;;;;;;13.25;5.20;;;;;;;3.91;46.44;101457.59;5036653;28;20029;-77
2022/03/20 07:37:01;;;;;;;16.55;6.90;;;;;;;4.02;46.77;101442.31;5035891;28;20037;-76
2022/03/20 07:39:27;;;;;;;15.82;6.88;;;;;;;4.24;46.28;101435.91;5035585;28;20040;-77
2022/03/20 07:41:52;;;;;;;13.40;6.22;;;;;;;4.32;46.33;101435.19;5036070;28;20037;-75
2022/03/20 07:44:18;;;;;;;11.83;5.50;;;;;;;4.54;45.67;101426.91;5035825;28;20041;-75
2022/03/20 07:46:43;;;;;;;14.47;5.40;;;;;;;4.72;45.64;101432.38;5034569;28;20027;-76
2022/03/20 07:49:09;;;;;;;13.20;6.00;;;;;;;4.47;45.53;101425.81;5035930;28;20376;-76
2022/03/20 07:51:35;;;;;;;19.77;6.43;;;;;;;4.51;46.00;101424.50;5035377;28;20033;-76
2022/03/20 07:54:01;;;;;;;18.70;7.20;;;;;;;4.75;45.08;101424.94;5034652;28;20532;-76
2022/03/20 07:56:30;;;;;;;17.35;6.10;;;;;;;4.78;45.62;101413.97;5038163;28;20039;-78
2022/03/20 07:58:55;;;;;;;16.38;6.38;;;;;;;4.76;45.35;101404.41;5037008;28;20033;-76
2022/03/20 08:01:22;;;;;;;17.83;6.47;;;;;;;5.08;44.38;101404.88;5035609;28;20040;-75
2022/03/20 08:03:48;;;;;;;14.35;6.20;;;;;;;5.05;44.43;101399.84;5035707;28;20186;-76
2022/03/20 08:06:15;;;;;;;;;;;;;;;5.05;44.34;101397.16;5036466;28;20057;-79
2022/03/20 08:08:41;;;;;;;19.33;6.78;;;;;;;5.06;44.83;101396.19;5035270;28;19967;-77
2022/03/20 08:11:08;;;;;;;13.82;5.70;;;;;;;4.89;44.75;101391.59;5035989;28;20031;-76
2022/03/20 08:13:33;;;;;;;13.60;5.93;;;;;;;4.99;45.24;101380.88;5034803;28;20044;-76
2022/03/20 08:15:59;;;;;;;19.02;6.43;;;;;;;5.03;44.98;101391.13;5034820;28;20037;-76
2022/03/20 08:18:25;;;;;;;14.95;6.78;;;;;;;5.08;44.57;101380.00;5033747;28;20499;-76
2022/03/20 08:20:50;;;;;;;15.85;6.55;;;;;;;5.22;44.40;101376.84;5033650;28;20112;-76
2022/03/20 08:23:16;;;;;;;14.77;6.13;;;;;;;5.33;44.73;101365.16;5033879;28;20431;-76
2022/03/20 08:25:42;;;;;;;16.10;7.18;;;;;;;5.22;44.72;101361.66;5034721;28;20041;-77
2022/03/20 08:28:12;;;;;;;16.63;7.05;;;;;;;5.27;44.65;101360.38;5034867;28;20384;-76
2022/03/20 08:30:40;;;;;;;16.38;6.95;;;;;;;5.49;44.62;101360.00;5034448;28;20075;-75
2022/03/20 08:33:05;;;;;;;14.30;6.72;;;;;;;5.46;44.13;101366.47;5034468;28;20025;-77
2022/03/20 08:35:31;;;;;;;14.45;6.80;;;;;;;5.45;44.49;101359.44;5016858;28;20116;-76
2022/03/20 08:37:56;;;;;;;12.00;6.03;;;;;;;5.51;44.00;101356.19;5033997;28;20460;-76
2022/03/20 08:40:24;;;;;;;16.17;7.30;;;;;;;5.64;44.21;101353.16;5034400;28;20029;-77
2022/03/20 08:42:52;;;;;;;17.40;7.10;;;;;;;5.66;44.02;101350.31;5034277;28;20460;-76
2022/03/20 08:45:20;;;;;;;15.50;6.57;;;;;;;5.48;44.23;101334.25;5034606;28;20057;-77
2022/03/20 08:47:45;;;;;;;16.85;7.63;;;;;;;5.72;43.71;101323.84;5034220;28;20032;-76
2022/03/20 08:50:13;;;;;;;20.58;7.82;;;;;;;5.63;44.15;101324.72;5033956;28;20033;-78
2022/03/20 08:52:39;;;;;;;13.98;6.00;;;;;;;5.75;44.20;101315.50;5034060;28;20042;-77
2022/03/20 08:55:10;;;;;;;13.82;7.35;;;;;;;5.68;44.39;101319.78;5034320;28;20026;-80
2022/03/20 08:57:43;;;;;;;12.82;6.35;;;;;;;5.39;44.43;101340.47;5034388;28;20120;-76
2022/03/20 09:00:10;;;;;;;15.23;7.15;;;;;;;5.37;45.25;101342.50;5034110;28;20472;-77
2022/03/20 09:02:37;;;;;;;16.70;7.28;;;;;;;5.54;44.83;101349.72;5033969;28;20033;-76
2022/03/20 09:05:07;;;;;;;16.98;7.35;;;;;;;5.49;45.10;101339.47;5034529;28;20029;-76
2022/03/20 09:07:32;;;;;;;13.52;6.35;;;;;;;5.58;44.89;101359.09;5034377;28;20503;-77
2022/03/20 09:09:58;;;;;;;19.10;7.35;;;;;;;5.44;45.40;101362.25;5033439;28;20025;-77
2022/03/20 09:12:24;;;;;;;14.45;6.30;;;;;;;5.66;44.71;101361.88;5034104;28;20125;-76
2022/03/20 09:14:49;;;;;;;16.45;6.88;;;;;;;5.69;44.89;101347.38;5034145;28;20060;-77
2022/03/20 09:19:59;;;;;;;17.45;7.22;;;;;;;6.08;44.87;101346.13;5033778;28;20036;-76
2022/03/20 09:22:27;;;;;;;19.17;7.55;;;;;;;6.13;44.33;101354.50;5034267;28;20029;-76
2022/03/20 09:24:53;;;;;;;17.08;7.57;;;;;;;6.21;44.48;101359.09;5033963;28;20380;-76
2022/03/20 09:27:19;;;;;;;15.77;7.18;;;;;;;6.00;44.88;101363.91;5033863;28;20029;-77
2022/03/20 09:29:44;;;;;;;17.58;8.30;;;;;;;6.04;44.71;101346.56;5033714;28;20033;-75
2022/03/20 09:32:10;;;;;;;17.02;6.32;;;;;;;6.10;44.59;101360.16;5033636;28;20516;-76
2022/03/20 09:34:35;;;;;;;18.63;7.23;;;;;;;6.10;44.98;101357.50;5033793;28;20033;-76
2022/03/20 09:37:01;;;;;;;15.02;6.72;;;;;;;6.12;44.44;101357.34;5034580;28;20065;-76
2022/03/20 09:39:26;;;;;;;14.97;6.60;;;;;;;6.13;45.48;101348.31;5033948;28;20033;-76
2022/03/20 09:41:54;;;;;;;15.38;7.13;;;;;;;6.18;44.77;101332.66;5032994;28;20651;-76
2022/03/20 09:44:23;;;;;;;18.77;7.38;;;;;;;6.47;44.73;101330.53;5033191;28;20037;-76
2022/03/20 09:46:49;;;;;;;18.48;7.30;;;;;;;6.70;44.16;101335.38;5033516;28;20041;-77
2022/03/20 09:49:16;;;;;;;16.42;7.30;;;;;;;6.63;44.80;101325.28;5032871;28;20037;-76
2022/03/20 09:51:43;;;;;;;17.67;7.30;;;;;;;6.58;44.57;101324.09;5032780;28;20458;-76
2022/03/20 09:54:09;;;;;;;18.75;8.02;;;;;;;6.60;45.02;101322.94;5033152;28;20030;-77
2022/03/20 09:56:34;;;;;;;17.17;7.53;;;;;;;6.53;45.45;101321.03;5033310;28;20083;-77
2022/03/20 09:59:00;;;;;;;17.20;6.93;;;;;;;6.73;45.37;101319.00;5033145;28;20033;-76
2022/03/20 10:01:25;;;;;;;16.30;6.97;;;;;;;6.93;44.93;101331.19;5031988;28;20283;-77
2022/03/20 10:04:14;;;;;;;18.50;7.93;;;;;;;7.02;44.65;101324.00;5032954;28;20107;-76
2022/03/20 10:06:42;;;;;;;18.60;7.80;;;;;;;7.03;44.43;101323.84;5033303;28;20284;-77
2022/03/20 10:09:10;;;;;;;17.50;7.43;;;;;;;7.17;44.38;101307.16;5032955;28;20033;-76
2022/03/20 10:11:47;;;;;;;14.73;6.47;;;;;;;7.26;44.88;101303.53;5033160;28;20455;-77
2022/03/20 10:14:18;;;;;;;17.27;6.95;;;;;;;7.55;43.93;101311.16;5031927;28;20030;-76
2022/03/20 10:16:48;;;;;;;16.55;7.43;;;;;;;7.24;44.52;101308.22;5033911;28;20037;-77
2022/03/20 10:19:25;;;;;;;18.77;7.22;;;;;;;7.47;44.26;101304.94;5037419;28;20426;-76
2022/03/20 10:21:55;;;;;;;17.88;7.75;;;;;;;7.61;44.40;101313.19;5037157;28;20430;-76
2022/03/20 10:24:22;;;;;;;19.17;7.57;;;;;;;7.71;44.09;101304.97;5037341;28;20041;-76
2022/03/20 10:27:00;;;;;;;18.52;7.55;;;;;;;7.76;44.24;101294.59;5037150;28;20033;-77
2022/03/20 10:29:27;;;;;;;18.38;7.65;;;;;;;7.79;44.02;101301.50;5037631;28;20029;-75
2022/03/20 10:31:55;;;;;;;20.27;8.18;;;;;;;7.94;44.00;101303.34;5037005;28;20418;-76
2022/03/20 10:34:21;;;;;;;17.08;8.25;;;;;;;8.11;43.73;101300.66;5037482;28;20117;-75
2022/03/20 10:36:49;;;;;;;19.77;7.85;;;;;;;8.24;43.60;101303.72;5037166;28;20439;-77
2022/03/20 10:39:19;;;;;;;18.85;8.30;;;;;;;8.24;44.36;101290.28;5037348;28;20384;-77
2022/03/20 10:41:45;;;;;;;19.65;8.50;;;;;;;8.54;43.78;101286.09;5036762;28;20119;-77
2022/03/20 10:44:19;;;;;;;17.67;8.55;;;;;;;8.56;43.14;101284.91;5037535;28;20036;-77
2022/03/20 10:46:59;;;;;;;19.90;8.57;;;;;;;8.69;43.49;101271.78;5036623;28;20029;-77
2022/03/20 10:49:25;;;;;;;19.90;8.38;;;;;;;8.69;43.21;101279.00;5036306;28;20034;-77
2022/03/20 10:52:02;;;;;;;;;;;;;;;8.62;43.60;101281.53;5019101;28;20044;-75
2022/03/20 10:54:42;;;;;;;16.90;7.55;;;;;;;8.79;43.30;101284.16;5036374;28;20006;-75
2022/03/20 10:57:08;;;;;;;19.35;8.48;;;;;;;8.73;43.45;101274.97;5036120;28;20025;-75
2022/03/20 10:59:34;;;;;;;18.00;8.07;;;;;;;8.89;43.21;101279.44;5035672;28;20040;-75
2022/03/20 11:02:05;;;;;;;17.30;7.22;;;;;;;9.06;42.83;101275.69;5035861;28;20396;-75
2022/03/20 11:04:32;;;;;;;19.77;8.25;;;;;;;8.91;43.36;101272.88;5035703;28;20029;-75
2022/03/20 11:07:00;;;;;;;18.95;8.48;;;;;;;9.10;43.17;101268.13;5035552;28;20184;-75
2022/03/20 11:09:26;;;;;;;22.55;8.30;;;;;;;9.18;42.83;101274.28;5035888;28;20105;-75
2022/03/20 11:11:53;;;;;;;20.17;9.57;;;;;;;9.18;43.07;101271.59;5036187;28;20174;-75
2022/03/20 11:14:21;;;;;;;18.60;8.13;;;;;;;9.42;43.74;101272.50;5035884;28;20124;-75
2022/03/20 11:16:53;;;;;;;24.27;10.00;;;;;;;9.32;43.15;101270.00;5036818;28;20380;-77
2022/03/20 11:19:23;;;;;;;19.98;9.00;;;;;;;9.61;42.68;101266.66;5036052;28;20447;-76
2022/03/20 11:21:52;;;;;;;21.00;8.85;;;;;;;9.72;42.63;101264.38;5034621;28;20449;-75
2022/03/20 11:24:18;;;;;;;22.35;8.82;;;;;;;9.84;42.55;101264.00;5035662;28;20044;-75
2022/03/20 11:26:51;;;;;;;19.17;9.05;;;;;;;9.87;42.93;101279.75;5035878;28;20068;-75
2022/03/20 11:29:19;;;;;;;24.45;8.93;;;;;;;10.00;42.31;101262.00;5035012;28;20059;-76
2022/03/20 11:31:45;;;;;;;16.73;8.32;;;;;;;10.06;42.73;101258.56;5035983;28;20029;-76
2022/03/20 11:34:12;;;;;;;;;;;;;;;10.07;42.25;101260.25;5036830;28;20030;-77
2022/03/20 11:37:00;;;;;;;21.20;9.47;;;;;;;10.25;42.11;101259.13;5036028;28;20312;-76
2022/03/20 11:39:26;;;;;;;18.45;9.20;;;;;;;10.33;42.08;101259.06;5018783;28;20484;-77
2022/03/20 11:42:20;;;;;;;18.67;8.23;;;;;;;10.20;42.75;101264.22;5036202;28;20140;-78
2022/03/20 11:44:53;;;;;;;21.70;8.63;;;;;;;10.38;43.02;101276.34;5035967;28;20427;-77
2022/03/20 11:47:21;;;;;;;23.02;9.35;;;;;;;10.35;43.62;101279.41;5035797;28;20166;-78
2022/03/20 11:50:27;;;;;;;20.13;9.13;;;;;;;10.21;43.43;101274.78;5036258;28;20029;-77
2022/03/20 11:53:01;;;;;;;18.17;9.02;;;;;;;10.26;43.50;101268.88;4989317;28;20049;-78
2022/03/20 11:55:41;;;;;;;19.95;9.00;;;;;;;10.29;44.75;101271.22;5036856;28;20511;-76
2022/03/20 11:58:22;;;;;;;19.77;9.45;;;;;;;10.40;43.12;101255.44;5034528;28;20059;-76
2022/03/20 12:01:04;;;;;;;21.80;8.88;;;;;;;10.62;42.86;101245.59;5035757;28;20048;-76
2022/03/20 12:04:12;;;;;;;20.73;9.82;;;;;;;10.76;43.02;101246.63;5034295;28;20090;-76